Time;durP1;ratioP1;P1;durP2;ratioP2;P2;SDS_P1;SDS_P2;PMS_P1;PMS_P2;Temp;Humidity;BMP_temperature;BMP_pressure;BME280_temperature;BME280_humidity;BME280_pressure;Samples;Min_cycle;Max_cycle;Signal;HPM_P1;HPM_P2
2022/06/14 00:03:05;;;;;;;4.42;2.10;;;;;;;21.10;59.59;99313.91;4393390;80;28550;-79
2022/06/14 00:09:24;;;;;;;5.53;2.25;;;;;;;21.13;58.66;99315.22;4415212;80;28538;-78
2022/06/14 00:15:25;;;;;;;4.97;2.22;;;;;;;20.98;59.09;99318.97;4379284;81;28499;-79
2022/06/14 00:21:28;;;;;;;3.95;1.52;;;;;;;21.03;58.86;99329.85;4390095;80;28471;-80
2022/06/14 00:27:29;;;;;;;3.17;1.85;;;;;;;21.33;57.26;99327.80;4387506;81;28542;-80
2022/06/14 00:33:32;;;;;;;5.42;1.90;;;;;;;21.15;57.72;99332.16;4364121;80;28523;-81
2022/06/14 00:39:33;;;;;;;3.42;2.12;;;;;;;21.16;58.81;99331.84;4376706;80;28546;-80
2022/06/14 00:45:40;;;;;;;4.40;2.33;;;;;;;19.87;64.82;99335.96;4380327;80;28527;-79
2022/06/14 00:51:53;;;;;;;5.90;2.45;;;;;;;19.82;67.08;99341.45;4382129;80;28467;-79
2022/06/14 00:58:03;;;;;;;5.70;2.55;;;;;;;19.64;69.11;99344.58;4384731;80;28522;-79
2022/06/14 01:04:19;;;;;;;4.42;2.75;;;;;;;19.72;68.74;99341.79;4386639;80;28505;-79
2022/06/14 01:10:28;;;;;;;6.12;3.65;;;;;;;19.85;67.26;99348.52;4354483;80;28539;-80
2022/06/14 01:16:32;;;;;;;8.40;4.03;;;;;;;20.00;68.17;99348.97;4333303;80;28484;-79
2022/06/14 01:22:34;;;;;;;5.37;3.58;;;;;;;20.87;61.37;99353.27;4361665;80;28535;-80
2022/06/14 01:28:38;;;;;;;7.30;3.77;;;;;;;20.00;69.45;99358.52;4229362;82;28516;-79
2022/06/14 01:34:50;;;;;;;4.90;3.50;;;;;;;20.15;70.05;99356.20;4402780;79;28518;-79
2022/06/14 01:41:12;;;;;;;6.47;4.08;;;;;;;20.24;69.84;99360.48;4397643;79;28448;-78
2022/06/14 01:47:21;;;;;;;7.45;5.08;;;;;;;20.52;67.32;99366.22;4400595;80;28503;-77
2022/06/14 01:54:03;;;;;;;8.95;5.60;;;;;;;20.78;66.27;99362.38;4406978;81;28457;-80
2022/06/14 02:00:19;;;;;;;7.87;5.20;;;;;;;20.91;67.95;99365.00;4379945;79;28495;-78
2022/06/14 02:06:46;;;;;;;9.60;5.95;;;;;;;20.94;68.86;99367.14;4398539;79;28528;-78
2022/06/14 02:13:11;;;;;;;10.82;5.12;;;;;;;20.86;69.56;99368.03;4388264;80;28529;-79
2022/06/14 02:19:21;;;;;;;10.90;5.95;;;;;;;20.69;71.49;99368.48;4389043;79;28486;-79
2022/06/14 02:25:31;;;;;;;10.58;6.00;;;;;;;21.13;67.43;99379.45;4405900;79;28535;-78
2022/06/14 02:31:46;;;;;;;8.28;6.20;;;;;;;20.91;70.83;99389.59;4397936;80;28476;-78
2022/06/14 02:38:05;;;;;;;10.25;6.25;;;;;;;20.95;70.22;99396.09;4338837;81;28510;-78
2022/06/14 02:44:36;;;;;;;10.05;6.12;;;;;;;21.18;70.59;99407.55;4372608;81;28498;-79
2022/06/14 02:51:10;;;;;;;9.90;6.12;;;;;;;21.04;72.53;99405.27;4372977;80;28509;-78
2022/06/14 02:57:38;;;;;;;9.60;6.85;;;;;;;21.25;71.06;99414.05;4331159;80;28478;-79
2022/06/14 03:04:03;;;;;;;10.45;6.85;;;;;;;21.24;72.00;99423.90;4342652;80;28511;-80
2022/06/14 03:10:27;;;;;;;9.50;6.22;;;;;;;21.25;71.24;99422.79;4364349;80;28575;-80
2022/06/14 03:17:01;;;;;;;11.22;6.83;;;;;;;21.28;72.24;99425.75;4360435;80;28539;-79
2022/06/14 03:23:53;;;;;;;11.25;6.62;;;;;;;21.03;73.79;99436.45;4377160;80;28505;-79
2022/06/14 03:30:06;;;;;;;11.38;6.92;;;;;;;21.29;71.85;99438.31;4377891;80;28468;-79
2022/06/14 03:36:10;;;;;;;10.48;7.22;;;;;;;21.23;72.11;99437.31;4396946;79;28478;-78
2022/06/14 03:42:12;;;;;;;10.43;6.92;;;;;;;21.25;71.52;99450.13;4387555;79;28555;-78
2022/06/14 03:48:14;;;;;;;11.15;6.92;;;;;;;20.91;74.57;99465.54;4405255;80;28674;-78
2022/06/14 03:54:26;;;;;;;13.10;7.00;;;;;;;21.31;72.52;99466.17;4401702;80;28589;-78
2022/06/14 04:00:49;;;;;;;15.48;8.05;;;;;;;21.49;71.12;99473.89;4403421;79;28660;-79
2022/06/14 04:06:55;;;;;;;15.05;8.33;;;;;;;21.56;70.91;99477.09;4374069;81;28549;-79
2022/06/14 04:13:19;;;;;;;12.68;8.63;;;;;;;21.54;71.39;99482.05;4402959;79;28467;-80
2022/06/14 04:19:29;;;;;;;11.68;7.25;;;;;;;21.83;69.98;99485.25;4391428;80;28548;-79
2022/06/14 04:25:36;;;;;;;10.93;7.55;;;;;;;22.04;69.32;99487.69;4399665;79;28607;-80
2022/06/14 04:32:03;;;;;;;10.93;6.83;;;;;;;22.36;67.73;99491.56;4373568;80;28513;-77
2022/06/14 04:38:09;;;;;;;11.75;7.87;;;;;;;22.31;68.09;99500.67;4303318;81;28498;-77
2022/06/14 04:44:32;;;;;;;11.38;8.33;;;;;;;22.28;67.22;99499.34;4247553;82;28510;-76
2022/06/14 04:50:54;;;;;;;13.32;8.18;;;;;;;22.57;66.56;99496.16;4252614;82;28545;-77
2022/06/14 04:57:04;;;;;;;14.40;8.95;;;;;;;22.77;66.67;99496.38;4250236;82;28574;-74
2022/06/14 05:03:23;;;;;;;16.32;8.58;;;;;;;22.70;64.62;99495.40;4242491;82;28598;-75
2022/06/14 05:09:30;;;;;;;14.83;8.85;;;;;;;22.98;65.42;99509.12;4323574;81;28502;-77
2022/06/14 05:18:29;;;;;;;16.12;8.28;;;;;;;22.98;64.13;99508.33;4321196;81;28474;-77
2022/06/14 05:24:31;;;;;;;22.77;7.70;;;;;;;22.98;64.13;99508.33;4331017;81;28511;-77
2022/06/14 05:31:00;;;;;;;12.50;7.47;;;;;;;23.44;62.31;99513.51;4325236;81;28492;-79
2022/06/14 05:37:28;;;;;;;14.10;8.05;;;;;;;23.53;61.79;99516.33;4418247;80;28497;-77
2022/06/14 05:43:36;;;;;;;15.70;9.58;;;;;;;23.37;62.43;99513.89;4380268;80;28491;-79
2022/06/14 05:49:43;;;;;;;13.68;8.35;;;;;;;23.42;61.39;99519.83;4378825;81;28561;-77
2022/06/14 05:55:49;;;;;;;;;;;;;;;23.45;60.58;99520.61;4294115;81;28576;-76
2022/06/14 06:02:11;;;;;;;12.25;7.72;;;;;;;23.93;58.05;99522.06;4394446;80;20180;-79
2022/06/14 06:08:27;;;;;;;17.27;7.58;;;;;;;23.50;57.46;99517.75;4333550;81;28502;-78
2022/06/14 06:15:03;;;;;;;12.60;7.47;;;;;;;23.89;56.11;99521.61;4358199;81;28589;-77
2022/06/14 06:21:30;;;;;;;16.93;8.15;;;;;;;24.18;54.36;99520.45;4384320;81;28506;-77
2022/06/14 06:27:44;;;;;;;14.78;8.05;;;;;;;23.79;55.48;99526.75;4287590;82;28540;-77
2022/06/14 06:33:52;;;;;;;14.65;7.12;;;;;;;23.79;55.73;99528.13;4334290;81;28478;-78
2022/06/14 06:40:08;;;;;;;9.48;5.55;;;;;;;24.03;54.29;99541.59;4362257;80;28532;-78
2022/06/14 06:46:13;;;;;;;10.30;5.83;;;;;;;24.33;52.22;99539.88;4349886;80;28488;-78
2022/06/14 06:52:18;;;;;;;10.20;5.87;;;;;;;23.96;51.59;99542.61;4343158;80;28491;-78
2022/06/14 06:58:40;;;;;;;7.08;5.03;;;;;;;24.19;51.21;99549.53;4363891;81;28517;-79
2022/06/14 07:05:03;;;;;;;7.50;4.33;;;;;;;24.46;49.24;99554.11;4347868;81;28506;-78
2022/06/14 07:11:06;;;;;;;5.97;2.90;;;;;;;23.86;50.96;99551.86;4371589;80;28515;-77
2022/06/14 07:17:22;;;;;;;7.87;3.30;;;;;;;23.70;47.82;99558.24;4366873;81;28463;-78
2022/06/14 07:23:41;;;;;;;4.67;3.07;;;;;;;24.22;48.80;99551.11;4337387;80;28440;-78
2022/06/14 07:29:53;;;;;;;6.25;2.72;;;;;;;24.23;47.40;99551.35;4342891;80;28534;-77
2022/06/14 07:36:15;;;;;;;6.25;3.08;;;;;;;24.54;44.48;99548.42;4327532;81;28472;-77
2022/06/14 07:42:43;;;;;;;4.30;2.50;;;;;;;24.47;46.73;99550.23;4326332;81;28535;-78
2022/06/14 07:48:52;;;;;;;6.17;3.37;;;;;;;25.20;42.56;99545.66;4324155;81;28561;-77
2022/06/14 07:55:29;;;;;;;7.47;2.37;;;;;;;25.72;45.24;99545.06;4322954;81;28519;-78
2022/06/14 08:01:42;;;;;;;3.85;1.90;;;;;;;24.76;41.77;99565.47;4340843;81;28554;-77
2022/06/14 08:07:46;;;;;;;2.77;1.80;;;;;;;24.26;41.09;99565.01;4339599;82;28553;-77
2022/06/14 08:13:53;;;;;;;6.75;2.60;;;;;;;25.22;40.96;99550.86;4355583;81;28488;-78
2022/06/14 08:20:03;;;;;;;3.85;1.52;;;;;;;25.00;38.31;99561.59;4320869;81;28469;-77
2022/06/14 08:26:19;;;;;;;4.28;1.87;;;;;;;25.06;38.96;99556.77;4340441;81;28530;-77
2022/06/14 08:32:32;;;;;;;7.72;2.10;;;;;;;24.80;40.78;99564.31;4340814;80;28537;-77
2022/06/14 08:38:38;;;;;;;4.47;1.95;;;;;;;24.02;41.31;99552.34;4341252;81;28485;-77
2022/06/14 08:45:00;;;;;;;5.78;2.02;;;;;;;24.56;39.21;99555.78;4330676;81;28628;-78
2022/06/14 08:51:33;;;;;;;6.12;2.50;;;;;;;24.48;40.29;99548.31;4319571;82;28530;-77
2022/06/14 08:58:00;;;;;;;4.42;1.77;;;;;;;25.33;39.87;99536.48;4279525;81;28511;-78
2022/06/14 09:04:29;;;;;;;5.35;1.65;;;;;;;25.48;37.85;99526.19;4321226;82;28510;-76
2022/06/14 09:11:20;;;;;;;4.72;1.70;;;;;;;25.53;37.36;99514.25;4328418;82;28517;-78
2022/06/14 09:17:55;;;;;;;3.58;1.60;;;;;;;26.51;36.82;99522.83;4323306;82;28511;-77
2022/06/14 09:24:12;;;;;;;4.85;1.60;;;;;;;25.99;36.20;99501.82;4323829;82;28528;-78
2022/06/14 09:30:48;;;;;;;4.03;1.30;;;;;;;26.82;35.24;99496.38;4305193;81;28469;-78
2022/06/14 09:37:01;;;;;;;3.33;1.40;;;;;;;26.87;33.53;99498.14;4331149;81;28532;-78
2022/06/14 09:43:29;;;;;;;4.00;1.87;;;;;;;27.86;32.01;99507.81;4315849;80;28467;-78
2022/06/14 09:50:04;;;;;;;3.12;1.60;;;;;;;27.82;32.60;99515.96;4365097;80;28468;-78
2022/06/14 09:56:29;;;;;;;3.83;1.40;;;;;;;26.77;33.58;99522.77;4330556;81;28500;-78
2022/06/14 10:02:46;;;;;;;2.53;1.20;;;;;;;27.47;32.66;99518.93;4379475;81;28515;-78
2022/06/14 10:08:59;;;;;;;3.77;1.45;;;;;;;27.17;33.04;99516.71;4320295;81;28533;-78
2022/06/14 10:15:21;;;;;;;2.40;1.50;;;;;;;26.63;33.69;99518.82;4340802;80;28533;-78
2022/06/14 10:21:40;;;;;;;3.05;1.20;;;;;;;27.13;32.87;99522.90;4357575;81;28507;-78
2022/06/14 10:28:14;;;;;;;2.60;1.20;;;;;;;26.57;34.64;99516.80;4354124;80;28501;-78
2022/06/14 10:34:33;;;;;;;3.15;1.00;;;;;;;26.85;34.73;99528.01;4312313;81;28546;-78
2022/06/14 10:40:55;;;;;;;2.60;1.00;;;;;;;26.71;33.15;99525.45;4237440;83;28505;-78
2022/06/14 10:47:17;;;;;;;3.62;1.00;;;;;;;27.36;33.02;99524.59;4127331;85;28561;-80
2022/06/14 10:53:50;;;;;;;3.20;0.90;;;;;;;27.57;32.98;99521.10;4191066;84;28539;-80
2022/06/14 11:00:07;;;;;;;7.17;1.15;;;;;;;27.83;30.98;99517.58;4083375;85;28501;-80
2022/06/14 11:07:01;;;;;;;1.72;0.90;;;;;;;28.17;30.77;99526.50;4170594;83;28506;-78
2022/06/14 11:13:51;;;;;;;4.00;1.85;;;;;;;27.96;31.28;99522.61;4038122;86;28488;-78
2022/06/14 11:20:09;;;;;;;3.12;1.30;;;;;;;27.77;31.39;99523.08;4118946;86;28504;-78
2022/06/14 11:26:36;;;;;;;2.40;1.20;;;;;;;27.45;32.92;99513.50;4097101;83;28613;-79
2022/06/14 11:32:52;;;;;;;2.98;1.30;;;;;;;28.39;31.66;99512.36;4255698;83;28483;-79
2022/06/14 11:39:25;;;;;;;3.42;1.30;;;;;;;27.94;32.25;99522.14;4362948;81;28527;-78
2022/06/14 11:46:01;;;;;;;2.30;1.55;;;;;;;28.55;32.32;99510.32;4330050;81;28460;-78
2022/06/14 11:52:16;;;;;;;3.90;1.10;;;;;;;27.75;30.22;99514.33;4332164;82;28500;-78
2022/06/14 11:58:36;;;;;;;2.22;1.05;;;;;;;28.56;30.71;99507.00;4307861;82;28496;-77
2022/06/14 12:04:54;;;;;;;3.20;1.00;;;;;;;28.63;30.96;99507.23;4326300;80;28535;-77
2022/06/14 12:11:03;;;;;;;3.17;1.45;;;;;;;28.96;30.31;99497.30;4351161;82;28531;-78
2022/06/14 12:17:10;;;;;;;3.45;0.95;;;;;;;28.67;31.03;99502.64;4355246;80;29176;-77
2022/06/14 12:23:22;;;;;;;3.12;1.10;;;;;;;28.17;30.64;99504.38;4367777;80;28559;-78
2022/06/14 12:29:32;;;;;;;2.83;1.12;;;;;;;28.09;30.92;99508.29;4334844;81;28493;-78
2022/06/14 12:35:41;;;;;;;3.10;1.17;;;;;;;30.07;29.11;99503.32;4345998;80;28572;-77
2022/06/14 12:42:00;;;;;;;2.47;1.10;;;;;;;28.67;30.67;99505.41;4351468;80;28513;-78
2022/06/14 12:48:24;;;;;;;3.72;1.30;;;;;;;28.35;30.96;99498.17;4330277;82;28513;-78
2022/06/14 12:55:01;;;;;;;4.60;1.10;;;;;;;28.10;31.54;99506.31;4355501;80;28569;-77
2022/06/14 13:01:23;;;;;;;3.37;1.15;;;;;;;28.78;30.21;99502.44;4319986;80;28486;-78
2022/06/14 13:07:57;;;;;;;2.37;1.20;;;;;;;28.64;30.70;99493.66;4328023;82;28520;-78
2022/06/14 13:14:10;;;;;;;3.08;1.30;;;;;;;29.01;31.16;99484.63;4339328;81;28509;-78
2022/06/14 13:20:42;;;;;;;3.55;1.15;;;;;;;29.07;30.70;99476.31;4352200;80;28492;-79
2022/06/14 13:27:25;;;;;;;2.70;1.00;;;;;;;29.02;28.12;99476.55;4316791;81;28469;-79
2022/06/14 13:33:49;;;;;;;1.70;1.00;;;;;;;29.06;28.07;99467.78;4309411;80;28524;-79
2022/06/14 13:40:17;;;;;;;4.33;1.12;;;;;;;28.50;28.87;99482.90;4327760;81;28558;-81
2022/06/14 13:46:30;;;;;;;3.72;1.10;;;;;;;28.20;29.20;99476.12;4333915;81;28552;-79
2022/06/14 13:52:46;;;;;;;1.85;0.90;;;;;;;27.95;29.15;99474.58;4342526;81;28507;-80
2022/06/14 13:58:58;;;;;;;1.95;1.00;;;;;;;28.45;28.80;99467.89;4335631;81;28512;-80
2022/06/14 14:05:17;;;;;;;4.15;1.20;;;;;;;28.32;28.58;99465.09;4337831;81;28527;-79
2022/06/14 14:11:40;;;;;;;4.15;0.75;;;;;;;28.36;28.10;99456.34;4331834;81;28560;-78
2022/06/14 14:18:16;;;;;;;3.37;0.98;;;;;;;28.23;28.45;99459.66;4322849;81;28500;-80
2022/06/14 14:24:45;;;;;;;5.85;1.62;;;;;;;28.15;28.29;99458.32;4356410;81;28514;-78
2022/06/14 14:31:09;;;;;;;4.72;0.90;;;;;;;28.56;27.99;99458.01;4342363;81;28478;-80
2022/06/14 14:37:33;;;;;;;1.77;0.72;;;;;;;28.18;27.95;99449.37;4333720;80;28508;-81
2022/06/14 14:43:38;;;;;;;3.17;1.10;;;;;;;28.57;26.67;99443.03;4332194;81;28504;-82
2022/06/14 14:49:48;;;;;;;2.72;0.80;;;;;;;28.77;27.55;99446.88;4333535;81;28537;-83
2022/06/14 14:55:58;;;;;;;2.02;0.82;;;;;;;28.99;26.54;99440.69;4336806;80;28535;-82
2022/06/14 15:08:48;;;;;;;3.80;0.90;;;;;;;27.50;28.21;99438.77;4339284;81;28624;-80
2022/06/14 15:15:03;;;;;;;1.57;0.70;;;;;;;28.56;27.46;99432.33;4335627;80;28536;-81
2022/06/14 15:21:07;;;;;;;2.02;0.90;;;;;;;28.32;27.93;99431.92;4332293;81;28499;-82
2022/06/14 15:27:11;;;;;;;2.58;1.00;;;;;;;27.55;28.57;99437.20;4333067;81;28524;-79
2022/06/14 15:33:21;;;;;;;1.72;0.60;;;;;;;28.04;28.12;99432.48;4320059;80;28520;-80
2022/06/14 15:39:34;;;;;;;3.45;1.00;;;;;;;28.12;28.10;99430.81;4340855;80;28481;-79
2022/06/14 15:45:51;;;;;;;3.10;0.93;;;;;;;27.37;27.81;99440.05;4335543;80;28508;-78
2022/06/14 15:51:56;;;;;;;2.80;1.00;;;;;;;27.81;27.64;99439.77;4316195;80;28468;-80
2022/06/14 15:58:15;;;;;;;1.92;0.90;;;;;;;27.30;28.20;99427.37;4331334;81;28463;-78
2022/06/14 16:04:34;;;;;;;4.35;0.70;;;;;;;27.44;28.10;99426.30;4302553;80;28572;-83
2022/06/14 16:10:44;;;;;;;2.62;0.80;;;;;;;27.08;27.55;99429.84;4352738;81;28556;-76
2022/06/14 16:17:16;;;;;;;4.20;0.93;;;;;;;27.12;28.13;99427.47;4327929;80;28626;-76
2022/06/14 16:23:20;;;;;;;1.90;0.70;;;;;;;27.71;27.16;99426.95;4336775;80;28515;-78
2022/06/14 16:29:54;;;;;;;4.43;0.90;;;;;;;27.76;26.69;99430.31;4314237;80;28514;-79
2022/06/14 16:36:27;;;;;;;3.08;0.72;;;;;;;27.91;26.74;99424.74;4348423;81;28536;-79
2022/06/14 16:42:42;;;;;;;2.50;0.93;;;;;;;28.36;26.50;99419.02;4350778;80;28599;-81
2022/06/14 16:49:27;;;;;;;5.22;0.98;;;;;;;27.91;27.94;99428.89;4257724;82;28560;-81
2022/06/14 16:55:42;;;;;;;2.17;0.90;;;;;;;27.67;28.74;99424.84;4199491;82;42901;-81
2022/06/14 17:02:10;;;;;;;2.47;0.88;;;;;;;27.75;29.11;99430.64;4246573;83;28582;-81
2022/06/14 17:08:22;;;;;;;2.47;1.10;;;;;;;26.92;29.58;99437.87;4229602;82;28527;-82
2022/06/14 17:14:53;;;;;;;2.02;0.98;;;;;;;28.49;28.07;99425.39;4221668;82;28505;-81
2022/06/14 17:21:32;;;;;;;3.58;1.00;;;;;;;28.38;28.56;99433.34;4230740;82;28485;-80
2022/06/14 17:34:04;;;;;;;2.45;1.10;;;;;;;28.06;27.79;99433.54;4168114;83;28495;-82
2022/06/14 17:40:38;;;;;;;4.65;1.10;;;;;;;28.35;28.24;99438.14;4192953;83;28526;-82
2022/06/14 17:46:42;;;;;;;3.25;0.90;;;;;;;28.29;27.95;99440.91;4236135;82;28538;-82
2022/06/14 17:52:58;;;;;;;3.30;1.30;;;;;;;28.81;27.74;99435.34;4210755;82;28971;-81
2022/06/14 17:59:23;;;;;;;5.17;1.10;;;;;;;28.09;27.99;99433.67;4257486;82;28487;-81
2022/06/14 18:05:43;;;;;;;4.30;1.10;;;;;;;28.42;27.96;99440.94;4218114;82;28560;-82
2022/06/14 18:11:56;;;;;;;2.47;1.30;;;;;;;28.01;27.97;99436.50;4220842;83;28512;-82
2022/06/14 18:18:00;;;;;;;2.58;1.02;;;;;;;27.97;28.35;99439.16;4212699;83;28531;-81
2022/06/14 18:24:06;;;;;;;4.60;1.20;;;;;;;27.93;28.63;99444.55;4230748;82;28524;-82
2022/06/14 18:30:14;;;;;;;3.17;1.22;;;;;;;27.50;29.12;99449.23;4154353;84;28550;-82
2022/06/14 18:36:15;;;;;;;4.58;1.65;;;;;;;27.14;31.52;99450.59;4254047;82;28555;-83
2022/06/14 18:42:38;;;;;;;2.33;1.40;;;;;;;26.75;32.92;99451.94;4340179;81;28588;-83
2022/06/14 18:48:43;;;;;;;4.00;1.35;;;;;;;26.35;35.16;99465.44;4351180;80;29185;-80
2022/06/14 18:55:16;;;;;;;5.45;1.20;;;;;;;25.87;34.90;99465.27;4326208;80;28532;-82
2022/06/14 19:01:31;;;;;;;5.42;1.22;;;;;;;25.56;36.42;99473.09;4346581;80;28488;-79
2022/06/14 19:08:06;;;;;;;4.58;1.37;;;;;;;25.09;36.95;99484.60;4361034;80;28488;-81
2022/06/14 19:14:39;;;;;;;2.17;1.27;;;;;;;24.92;37.61;99486.72;4341221;80;28512;-80
2022/06/14 19:21:05;;;;;;;5.08;1.60;;;;;;;24.49;38.16;99507.34;4340682;80;28561;-79
2022/06/14 19:27:41;;;;;;;5.53;1.47;;;;;;;24.20;39.19;99509.38;4342170;80;28475;-77
2022/06/14 19:34:00;;;;;;;8.30;2.08;;;;;;;23.84;39.94;99514.30;4262325;82;28592;-82
2022/06/14 19:40:03;;;;;;;5.53;1.95;;;;;;;23.25;41.61;99513.02;4211956;82;28474;-84
2022/06/14 19:46:38;;;;;;;5.05;1.82;;;;;;;23.12;41.58;99519.31;4200118;83;28579;-82
2022/06/14 19:52:41;;;;;;;4.92;2.30;;;;;;;23.06;42.56;99524.06;4196252;83;28466;-84
2022/06/14 19:59:00;;;;;;;5.40;1.67;;;;;;;23.55;40.63;99520.95;4145019;86;28515;-82
2022/06/14 20:05:02;;;;;;;3.77;1.50;;;;;;;23.21;41.86;99525.70;4283692;81;28493;-80
2022/06/14 20:11:05;;;;;;;6.40;1.70;;;;;;;22.82;43.75;99526.41;4299326;81;28560;-80
2022/06/14 20:17:21;;;;;;;7.42;1.80;;;;;;;22.82;42.78;99527.78;4293788;81;28512;-80
2022/06/14 20:23:43;;;;;;;3.67;1.90;;;;;;;22.56;44.01;99528.78;4302978;81;28551;-80
2022/06/14 20:29:51;;;;;;;;;;;;;;;22.46;45.33;99529.75;4282672;81;28524;-81
2022/06/14 20:35:57;;;;;;;3.62;1.62;;;;;;;22.72;45.90;99543.61;4297658;81;20191;-81
2022/06/14 20:42:16;;;;;;;11.48;5.17;;;;;;;22.42;45.49;99547.33;4323447;80;28492;-83
2022/06/14 20:48:22;;;;;;;5.08;2.20;;;;;;;22.46;46.08;99546.19;4356883;80;28511;-82
2022/06/14 20:54:23;;;;;;;7.62;1.92;;;;;;;22.60;45.39;99559.14;4306093;80;29068;-80
2022/06/14 21:00:27;;;;;;;3.65;1.65;;;;;;;22.67;45.51;99556.27;4373646;80;28500;-80
2022/06/14 21:06:28;;;;;;;4.60;1.80;;;;;;;22.68;44.65;99563.95;4367865;80;28538;-78
2022/06/14 21:12:42;;;;;;;7.50;2.22;;;;;;;22.69;45.96;99554.03;4349458;80;28551;-81
2022/06/14 21:18:48;;;;;;;3.12;2.20;;;;;;;22.67;45.74;99557.64;4343473;80;28513;-81
2022/06/14 21:24:58;;;;;;;3.58;1.50;;;;;;;22.57;45.54;99567.40;4340736;80;28488;-81
2022/06/14 21:31:10;;;;;;;4.67;1.90;;;;;;;22.46;46.82;99569.47;4370268;80;28621;-81
2022/06/14 21:37:29;;;;;;;5.10;1.80;;;;;;;22.43;47.42;99572.78;4334032;80;28547;-81
2022/06/14 21:43:34;;;;;;;5.58;1.57;;;;;;;22.50;47.32;99578.73;4356917;80;28541;-81
2022/06/14 21:49:39;;;;;;;6.17;1.70;;;;;;;22.34;47.49;99577.33;4349921;81;28538;-82
2022/06/14 21:56:00;;;;;;;4.00;1.75;;;;;;;22.43;47.44;99574.16;4334442;80;28504;-81
2022/06/14 22:02:16;;;;;;;6.22;2.08;;;;;;;22.56;47.03;99580.30;4338738;80;28610;-80
2022/06/14 22:08:18;;;;;;;4.90;1.85;;;;;;;22.39;45.09;99582.17;4355179;80;28522;-80
2022/06/14 22:14:39;;;;;;;4.03;1.85;;;;;;;22.48;47.25;99590.53;4326536;80;28592;-79
2022/06/14 22:20:41;;;;;;;3.85;1.82;;;;;;;22.32;49.08;99587.20;4355142;80;28516;-81
2022/06/14 22:26:43;;;;;;;4.40;1.90;;;;;;;22.18;48.28;99589.03;4353550;80;28547;-81
2022/06/14 22:32:44;;;;;;;5.35;1.60;;;;;;;22.26;48.76;99600.70;4345893;80;28564;-80
2022/06/14 22:38:45;;;;;;;4.33;1.80;;;;;;;22.21;49.86;99598.84;4332691;81;28548;-81
2022/06/14 22:44:47;;;;;;;5.87;1.95;;;;;;;22.19;50.62;99601.08;4343388;81;28484;-79
2022/06/14 22:50:48;;;;;;;4.85;1.95;;;;;;;21.94;50.45;99604.97;4341205;80;28521;-80
2022/06/14 22:56:53;;;;;;;3.37;2.00;;;;;;;21.76;51.57;99605.99;4324916;80;28526;-80
2022/06/14 23:02:56;;;;;;;3.08;2.00;;;;;;;21.85;50.82;99600.14;4361023;80;28508;-79
2022/06/14 23:08:57;;;;;;;4.80;1.90;;;;;;;21.77;51.69;99603.55;4339841;81;28557;-81
2022/06/14 23:14:58;;;;;;;4.53;1.80;;;;;;;21.66;51.86;99598.70;4338832;81;28581;-79
2022/06/14 23:21:00;;;;;;;4.08;2.25;;;;;;;21.72;51.49;99603.59;4343135;80;28572;-79
2022/06/14 23:27:01;;;;;;;6.20;2.10;;;;;;;21.53;51.14;99602.15;4354711;80;28500;-79
2022/06/14 23:33:02;;;;;;;6.75;2.20;;;;;;;21.34;52.12;99602.89;4365228;80;28980;-80
2022/06/14 23:39:04;;;;;;;3.22;2.17;;;;;;;21.25;52.46;99605.98;4368204;80;28513;-81
2022/06/14 23:45:07;;;;;;;3.45;1.90;;;;;;;20.98;51.68;99604.58;4372051;80;28542;-82
2022/06/14 23:51:09;;;;;;;3.70;1.62;;;;;;;20.86;52.46;99615.91;4366628;80;28487;-83
2022/06/14 23:57:10;;;;;;;3.83;1.72;;;;;;;20.78;52.09;99617.84;4357447;80;28550;-83
